Temp: 2.2°C   Baro: 1027.0mb
  Wind: 0.9mph   Dir: ESE (123°)
  Rain: 0.0mm (0.0mm/hr)
  Solar: 95W/m2  Hum: 97%

Historic data

Bath Spa Weather Station Historical Data
Daily Summary for May 19, 2022 Units:  English    Metric   Both
Daily Weekly Monthly Yearly Custom
  High: Low: Average:
Temperature: 67 °F 49.8 °F 57.6 °F
Dew Point: 55.4 °F 47.7 °F 51.4 °F
Humidity: 96% 61.6% 81%
Wind Speed: 8.2mph 0mph 2.4mph
Wind Gust: 14mph - -
Wind- - West
Pressure: 30.16 in 30.00 in -
Precipitation: 0.01 in    
Historical Graphs
 
 
Tabular Data for May 19, 2022
Time Temperature Dew Point Pressure Wind Wind Speed Wind Gust Humidity Rainfall Rate (Hourly) solar
00:09 53.9 °F 52.2 °F 30.00 in WNW 2.4 mph 4 mph 94% 0.01 in 0 W/m2
00:14 53.8 °F 52.2 °F 30.01 in WNW 1 mph 3 mph 94% 0.01 in 0 W/m2
00:19 53.8 °F 52.2 °F 30.01 in WNW 0.4 mph 2 mph 94% 0.01 in 0 W/m2
00:24 53.5 °F 51.9 °F 30.01 in WNW 1.1 mph 2 mph 94% 0.01 in 0 W/m2
00:29 53.4 °F 51.8 °F 30.01 in WNW 0.6 mph 2 mph 94% 0.01 in 0 W/m2
00:34 53.4 °F 51.8 °F 30.01 in WNW 0.2 mph 2 mph 94% 0.01 in 0 W/m2
00:39 53.4 °F 51.8 °F 30.01 in Calm   1 mph 94% 0.01 in 0 W/m2
00:44 53.2 °F 51.6 °F 30.01 in Calm     94% 0.01 in 0 W/m2
00:49 53.2 °F 51.6 °F 30.01 in WNW 0.5 mph 1 mph 94% 0.01 in 0 W/m2
00:54 53.2 °F 51.6 °F 30.01 in WNW 0.2 mph 1 mph 94% 0.01 in 0 W/m2
00:59 53.2 °F 51.6 °F 30.01 in WNW 0.5 mph 1 mph 94% 0.01 in 0 W/m2
01:04 53.2 °F 51.6 °F 30.01 in Calm   1 mph 94% 0.01 in 0 W/m2
01:09 53.2 °F 51.6 °F 30.01 in Calm     94% 0.00 in 0 W/m2
01:14 53.1 °F 51.4 °F 30.01 in Calm     94% 0.00 in 0 W/m2
01:19 53.1 °F 51.4 °F 30.02 in Calm     94% 0.00 in 0 W/m2
01:24 52.9 °F 51.3 °F 30.02 in Calm     94% 0.00 in 0 W/m2
01:29 52.9 °F 51.3 °F 30.02 in Calm     94% 0.00 in 0 W/m2
01:34 52.9 °F 51.3 °F 30.02 in Calm     94% 0.00 in 0 W/m2
01:39 52.9 °F 51.3 °F 30.02 in Calm     94% 0.00 in 0 W/m2
01:44 52.9 °F 51.3 °F 30.02 in Calm     94% 0.00 in 0 W/m2
01:49 52.9 °F 51.3 °F 30.02 in Calm     94% 0.00 in 0 W/m2
01:54 52.7 °F 51.1 °F 30.02 in Calm     94% 0.00 in 0 W/m2
01:59 52.5 °F 50.9 °F 30.03 in Calm     94% 0.00 in 0 W/m2
02:04 52.4 °F 50.8 °F 30.03 in Calm     94% 0.00 in 0 W/m2
02:09 52.3 °F 50.7 °F 30.03 in Calm     94% 0.00 in 0 W/m2
02:14 52.2 °F 50.6 °F 30.03 in Calm     94% 0.00 in 0 W/m2
02:19 52.2 °F 50.5 °F 30.03 in Calm     94% 0.00 in 0 W/m2
02:24 52.1 °F 50.4 °F 30.03 in Calm     94% 0.00 in 0 W/m2
02:29 52.1 °F 50.5 °F 30.03 in Calm     94% 0.00 in 0 W/m2
02:34 52 °F 50.3 °F 30.03 in Calm     94% 0.00 in 0 W/m2
02:39 51.8 °F 50.2 °F 30.03 in Calm     94% 0.00 in 0 W/m2
02:44 51.6 °F 50 °F 30.03 in Calm     94% 0.00 in 0 W/m2
02:49 51.6 °F 50 °F 30.03 in Calm     94% 0.00 in 0 W/m2
02:54 51.6 °F 50.1 °F 30.03 in Calm     94.6% 0.00 in 0 W/m2
02:59 51.6 °F 50.2 °F 30.03 in Calm     95% 0.00 in 0 W/m2
03:04 51.6 °F 50.2 °F 30.03 in Calm     95% 0.00 in 0 W/m2
03:09 51.4 °F 50 °F 30.03 in Calm     95% 0.00 in 0 W/m2
03:14 51.4 °F 50 °F 30.03 in Calm     95% 0.00 in 0 W/m2
03:19 51.4 °F 50 °F 30.03 in WNW 2.2 mph 3 mph 95% 0.00 in 0 W/m2
03:24 51.3 °F 49.8 °F 30.03 in WNW 1.8 mph 3 mph 95% 0.00 in 0 W/m2
03:29 51.2 °F 49.7 °F 30.03 in WNW 2.4 mph 3 mph 95% 0.00 in 0 W/m2
03:34 51.1 °F 49.6 °F 30.03 in WNW 1.8 mph 3 mph 95% 0.00 in 0 W/m2
03:39 50.8 °F 49.4 °F 30.03 in WNW 1.7 mph 3 mph 95% 0.00 in 0 W/m2
03:44 50.4 °F 49 °F 30.03 in WNW 1.5 mph 3 mph 95% 0.00 in 0 W/m2
03:49 50.3 °F 48.8 °F 30.03 in WNW 0.2 mph 1 mph 95% 0.00 in 0 W/m2
03:54 50.2 °F 48.7 °F 30.03 in Calm     95% 0.00 in 0 W/m2
03:59 50.2 °F 48.7 °F 30.03 in Calm     95% 0.00 in 0 W/m2
04:04 50.2 °F 48.7 °F 30.03 in Calm     95% 0.00 in 0 W/m2
04:09 50.2 °F 48.7 °F 30.03 in Calm     95% 0.00 in 0 W/m2
04:14 50.4 °F 48.9 °F 30.03 in Calm     95% 0.00 in 0 W/m2
04:19 50.4 °F 48.9 °F 30.03 in Calm     95% 0.00 in 0 W/m2
04:24 50.5 °F 49 °F 30.03 in Calm     95% 0.00 in 0 W/m2
04:29 50.5 °F 49.1 °F 30.03 in WNW 0.2 mph 2 mph 95% 0.00 in 0 W/m2
04:34 50.5 °F 49.1 °F 30.03 in WNW 1.3 mph 2 mph 95% 0.00 in 0 W/m2
04:39 50.4 °F 49 °F 30.03 in WNW 0.4 mph 2 mph 95% 0.00 in 0 W/m2
04:44 50.4 °F 48.9 °F 30.03 in WNW 0.2 mph 1 mph 95% 0.00 in 0 W/m2
04:49 50.4 °F 48.9 °F 30.03 in Calm   1 mph 95% 0.00 in 0 W/m2
04:54 50.3 °F 48.8 °F 30.03 in Calm     95% 0.00 in 0 W/m2
04:59 50.2 °F 48.7 °F 30.03 in Calm     95% 0.00 in 0 W/m2
05:04 50.2 °F 48.7 °F 30.03 in Calm   1 mph 95% 0.00 in 0 W/m2
05:09 50.2 °F 48.7 °F 30.03 in Calm     95% 0.00 in 0 W/m2
05:14 50.4 °F 48.9 °F 30.03 in WNW 0.4 mph 1 mph 95% 0.00 in 0 W/m2
05:19 50.3 °F 48.8 °F 30.03 in WNW 1.1 mph 2 mph 95% 0.00 in 0 W/m2
05:24 50.2 °F 48.7 °F 30.03 in WNW 0.2 mph 2 mph 95% 0.00 in 9 W/m2
05:29 50 °F 48.6 °F 30.03 in Calm     95% 0.00 in 9 W/m2
05:34 49.9 °F 48.5 °F 30.03 in Calm     95% 0.00 in 12 W/m2
05:39 49.8 °F 48.4 °F 30.03 in Calm     95% 0.00 in 14 W/m2
05:44 49.9 °F 48.5 °F 30.03 in Calm     95% 0.00 in 16 W/m2
05:49 49.8 °F 48.4 °F 30.03 in Calm     95% 0.00 in 16 W/m2
05:54 49.8 °F 48.4 °F 30.03 in Calm     95% 0.00 in 16 W/m2
06:04 49.8 °F 48.4 °F 30.04 in Calm     95% 0.00 in 25 W/m2
06:08 49.9 °F 48.5 °F 30.04 in Calm   1 mph 95% 0.00 in 30 W/m2
06:14 50.1 °F 48.7 °F 30.04 in WNW 0.2 mph 1 mph 95% 0.00 in 47 W/m2
06:19 50.2 °F 48.7 °F 30.04 in Calm     95% 0.00 in 58 W/m2
06:24 50.3 °F 48.8 °F 30.04 in Calm     95% 0.00 in 60 W/m2
06:29 50.4 °F 49.1 °F 30.05 in Calm     95.6% 0.00 in 60 W/m2
06:34 50.4 °F 49.3 °F 30.06 in WNW 0.4 mph 2 mph 96% 0.00 in 51 W/m2
06:39 50.4 °F 49.3 °F 30.06 in Calm   1 mph 96% 0.00 in 46 W/m2
06:44 50.4 °F 49.3 °F 30.06 in Calm   1 mph 96% 0.00 in 53 W/m2
06:49 50.5 °F 49.5 °F 30.06 in Calm   1 mph 96% 0.00 in 54 W/m2
06:54 50.7 °F 49.6 °F 30.06 in Calm     96% 0.00 in 86 W/m2
06:59 51.3 °F 50.3 °F 30.06 in Calm     96% 0.00 in 97 W/m2
07:04 52.1 °F 51 °F 30.06 in Calm     96% 0.00 in 95 W/m2
07:09 52.5 °F 51.5 °F 30.06 in Calm     96% 0.00 in 86 W/m2
07:14 51.9 °F 50.8 °F 30.06 in Calm     96% 0.00 in 114 W/m2
07:16 51.6 °F 50.5 °F 30.06 in Calm     96% 0.00 in 130 W/m2
07:24 51.6 °F 50.5 °F 30.06 in Calm     96% 0.00 in 134 W/m2
07:29 52 °F 50.9 °F 30.08 in WNW 0.6 mph 3 mph 96% 0.00 in 141 W/m2
07:34 52 °F 50.9 °F 30.07 in Calm   3 mph 96% 0.00 in 165 W/m2
07:36 52 °F 50.9 °F 30.08 in WNW 0.5 mph 1 mph 96% 0.00 in 174 W/m2
07:44 52 °F 50.9 °F 30.08 in WNW 1.2 mph 2 mph 96% 0.00 in 178 W/m2
07:49 52.1 °F 51 °F 30.08 in WNW 0.5 mph 2 mph 96% 0.00 in 378 W/m2
07:54 52.8 °F 51.7 °F 30.08 in WNW 0.4 mph 2 mph 96% 0.00 in 311 W/m2
07:59 52.6 °F 51.5 °F 30.08 in WNW 0.8 mph 3 mph 96% 0.00 in 211 W/m2
08:04 52.9 °F 51.8 °F 30.08 in Calm   1 mph 96% 0.00 in 192 W/m2
08:09 53.3 °F 52.3 °F 30.08 in Calm     96% 0.00 in 197 W/m2
08:14 54.1 °F 53 °F 30.08 in Calm     96% 0.00 in 459 W/m2
08:19 54.7 °F 53.6 °F 30.08 in Calm     96% 0.00 in 236 W/m2
08:24 54.9 °F 53.8 °F 30.07 in Calm     96% 0.00 in 475 W/m2
08:29 55.5 °F 54.3 °F 30.08 in Calm     96% 0.00 in 489 W/m2
08:34 55 °F 53.7 °F 30.09 in WNW 1.2 mph 5 mph 95.2% 0.00 in 258 W/m2
08:39 54.9 °F 53.5 °F 30.09 in West 2.8 mph 6 mph 95% 0.00 in 265 W/m2
08:44 55 °F 53.5 °F 30.09 in West 2.9 mph 5 mph 95% 0.00 in 339 W/m2
08:49 55.3 °F 53.9 °F 30.09 in West 2.2 mph 4 mph 95% 0.00 in 318 W/m2
08:54 55.5 °F 54 °F 30.09 in West 3.9 mph 7 mph 94.4% 0.00 in 311 W/m2
08:59 55.6 °F 54 °F 30.09 in West 4.6 mph 7 mph 94% 0.00 in 202 W/m2
09:04 55.6 °F 54 °F 30.10 in West 4.2 mph 8 mph 94% 0.00 in 146 W/m2
09:09 55.2 °F 53.5 °F 30.10 in West 4.2 mph 8 mph 93.6% 0.00 in 148 W/m2
09:14 55 °F 53.1 °F 30.10 in West 2.8 mph 7 mph 93% 0.00 in 125 W/m2
09:19 55.2 °F 53.2 °F 30.10 in West 2 mph 5 mph 93% 0.00 in 232 W/m2
09:24 55.4 °F 53.2 °F 30.10 in West 3.1 mph 5 mph 92.4% 0.00 in 320 W/m2
09:29 55.8 °F 53.5 °F 30.11 in West 3.7 mph 6 mph 92% 0.00 in 501 W/m2
09:34 56.1 °F 53.7 °F 30.11 in West 5 mph 9 mph 91.6% 0.00 in 373 W/m2
09:39 56 °F 53.5 °F 30.11 in WNW 5.4 mph 11 mph 91% 0.00 in 334 W/m2
09:44 56.1 °F 53.3 °F 30.11 in West 4.4 mph 8 mph 90.2% 0.00 in 290 W/m2
09:49 56.2 °F 53.1 °F 30.11 in West 1.7 mph 5 mph 89.4% 0.00 in 345 W/m2
09:54 56.6 °F 53.3 °F 30.10 in West 4 mph 7 mph 88.8% 0.00 in 506 W/m2
09:59 56.5 °F 52.8 °F 30.10 in West 2.6 mph 8 mph 87.4% 0.00 in 506 W/m2
10:04 57.1 °F 52.9 °F 30.10 in West 1.6 mph 5 mph 85.8% 0.00 in 742 W/m2
10:09 58.1 °F 53.3 °F 30.10 in West 3.2 mph 6 mph 84.2% 0.00 in 784 W/m2
10:14 58.4 °F 53.2 °F 30.10 in West 1.7 mph 4 mph 82.8% 0.00 in 784 W/m2
10:19 58.3 °F 52.6 °F 30.11 in West 2.1 mph 4 mph 81.2% 0.00 in 729 W/m2
10:24 58.5 °F 52.5 °F 30.11 in West 1.8 mph 5 mph 80.4% 0.00 in 784 W/m2
10:29 59.2 °F 52.6 °F 30.11 in West 2.1 mph 5 mph 78.8% 0.00 in 765 W/m2
10:34 59.3 °F 52.5 °F 30.11 in West 4 mph 8 mph 78.4% 0.00 in 840 W/m2
10:39 59.3 °F 52.2 °F 30.11 in West 1.7 mph 5 mph 77.4% 0.00 in 795 W/m2
10:44 59.8 °F 52.6 °F 30.11 in WSW 2 mph 6 mph 77% 0.00 in 800 W/m2
10:49 60.3 °F 51.9 °F 30.11 in WSW 4.9 mph 9 mph 73.8% 0.00 in 780 W/m2
10:54 60.1 °F 51.6 °F 30.11 in West 3.2 mph 9 mph 73.4% 0.00 in 905 W/m2
10:59 61.1 °F 52.5 °F 30.11 in WNW 3.7 mph 7 mph 73.2% 0.00 in 942 W/m2
11:04 61.1 °F 51.8 °F 30.11 in WSW 3.3 mph 8 mph 71.6% 0.00 in 886 W/m2
11:09 60.2 °F 51.2 °F 30.12 in SW 5.6 mph 9 mph 72% 0.00 in 512 W/m2
11:14 60.5 °F 51.9 °F 30.12 in West 4.4 mph 9 mph 73.2% 0.00 in 1004 W/m2
11:19 61 °F 51.3 °F 30.12 in WNW 5.8 mph 9 mph 70.8% 0.00 in 904 W/m2
11:24 61 °F 51.4 °F 30.12 in WNW 2.6 mph 8 mph 71% 0.00 in 981 W/m2
11:29 60.8 °F 51.5 °F 30.12 in WNW 5.2 mph 10 mph 71.4% 0.00 in 457 W/m2
11:34 60.3 °F 51.5 °F 30.12 in NW 4.5 mph 7 mph 72.4% 0.00 in 292 W/m2
11:39 60.2 °F 51.9 °F 30.12 in West 4.6 mph 9 mph 74% 0.00 in 1005 W/m2
11:44 61.3 °F 52.4 °F 30.12 in West 5.4 mph 12 mph 72.6% 0.00 in 1005 W/m2
11:49 61.4 °F 51.6 °F 30.11 in West 5.1 mph 10 mph 70.2% 0.00 in 951 W/m2
11:54 62.5 °F 51.8 °F 30.11 in West 3.9 mph 10 mph 68% 0.00 in 881 W/m2
11:59 62.8 °F 51.9 °F 30.11 in West 5.2 mph 12 mph 67.6% 0.00 in 893 W/m2
12:04 62.8 °F 52.6 °F 30.11 in West 5.5 mph 10 mph 69.2% 0.00 in 1000 W/m2
12:09 63 °F 53 °F 30.11 in West 7.1 mph 12 mph 69.6% 0.00 in 1021 W/m2
12:14 62.4 °F 53 °F 30.12 in West 4.1 mph 9 mph 71.4% 0.00 in 244 W/m2
12:19 61.9 °F 52.8 °F 30.12 in WNW 6.8 mph 12 mph 72.6% 0.00 in 461 W/m2
12:29 61.5 °F 52.1 °F 30.11 in WSW 5 mph 12 mph 71.5% 0.00 in 947 W/m2
12:34 62 °F 53 °F 30.11 in West 5.8 mph 12 mph 72.4% 0.00 in 990 W/m2
12:39 62.7 °F 53 °F 30.11 in West 3.9 mph 12 mph 70.6% 0.00 in 1041 W/m2
12:44 63 °F 53.6 °F 30.11 in WNW 6 mph 12 mph 71.4% 0.00 in 1046 W/m2
12:49 62.9 °F 53.7 °F 30.11 in WNW 4.2 mph 10 mph 72% 0.00 in 1072 W/m2
12:54 62.9 °F 53.6 °F 30.11 in WNW 5 mph 10 mph 71.8% 0.00 in 257 W/m2
12:59 62.5 °F 53.3 °F 30.11 in WNW 5.8 mph 10 mph 71.8% 0.00 in 345 W/m2
13:04 62.8 °F 53.2 °F 30.11 in West 3.9 mph 8 mph 70.8% 0.00 in 1072 W/m2
13:09 63.3 °F 53.7 °F 30.11 in WSW 5.8 mph 10 mph 70.8% 0.00 in 1042 W/m2
13:14 63.6 °F 53.7 °F 30.11 in WNW 3.6 mph 10 mph 70% 0.00 in 1053 W/m2
13:19 64.7 °F 54.3 °F 30.11 in WNW 2.7 mph 6 mph 69% 0.00 in 1053 W/m2
13:24 65.1 °F 54.1 °F 30.11 in WSW 4 mph 9 mph 67.4% 0.00 in 1020 W/m2
13:29 64.6 °F 53 °F 30.11 in WSW 3.4 mph 10 mph 66.2% 0.00 in 719 W/m2
13:34 64.1 °F 53.4 °F 30.11 in WNW 4.6 mph 9 mph 68.4% 0.00 in 1032 W/m2
13:39 63.7 °F 53.2 °F 30.11 in West 4 mph 8 mph 69% 0.00 in 1032 W/m2
13:44 63.2 °F 53.5 °F 30.11 in WNW 4.8 mph 8 mph 70.4% 0.00 in 251 W/m2
13:49 63.7 °F 53.7 °F 30.12 in NW 3.3 mph 7 mph 70% 0.00 in 993 W/m2
13:54 63.9 °F 53.4 °F 30.12 in WNW 4.8 mph 8 mph 68.6% 0.00 in 232 W/m2
13:59 63.5 °F 53.2 °F 30.12 in West 1.7 mph 6 mph 69% 0.00 in 350 W/m2
14:04 64.5 °F 54 °F 30.12 in West 2.6 mph 6 mph 69% 0.00 in 598 W/m2
14:09 64 °F 53.6 °F 30.12 in West 4.1 mph 8 mph 69% 0.00 in 1030 W/m2
14:14 64.7 °F 54.2 °F 30.12 in WSW 3.9 mph 8 mph 68.8% 0.00 in 1011 W/m2
14:19 64.3 °F 53.4 °F 30.12 in SW 4.1 mph 9 mph 67.8% 0.00 in 318 W/m2
14:24 64.2 °F 53.8 °F 30.12 in SSW 2.1 mph 8 mph 69.2% 0.00 in 896 W/m2
14:29 65 °F 53.6 °F 30.12 in West 5.4 mph 9 mph 66.6% 0.00 in 923 W/m2
14:34 64.7 °F 53 °F 30.12 in WSW 3.3 mph 8 mph 66% 0.00 in 260 W/m2
14:39 64.8 °F 53.8 °F 30.12 in West 4.1 mph 7 mph 67.6% 0.00 in 888 W/m2
14:44 65.3 °F 53.7 °F 30.12 in West 3.6 mph 9 mph 66% 0.00 in 1023 W/m2
14:49 65.6 °F 53.6 °F 30.12 in WSW 2.8 mph 8 mph 65.4% 0.00 in 1028 W/m2
14:54 66 °F 54.1 °F 30.12 in West 5.3 mph 9 mph 65.4% 0.00 in 930 W/m2
14:59 66.2 °F 53.4 °F 30.12 in SW 4.5 mph 9 mph 63.4% 0.00 in 401 W/m2
15:04 66.2 °F 53.3 °F 30.12 in WSW 2.5 mph 8 mph 63.2% 0.00 in 524 W/m2
15:09 65.6 °F 52.6 °F 30.12 in SW 3.5 mph 10 mph 62.8% 0.00 in 970 W/m2
15:14 67 °F 53.4 °F 30.12 in SW 1.2 mph 5 mph 61.6% 0.00 in 928 W/m2
15:19 67 °F 53.5 °F 30.12 in WSW 3.3 mph 8 mph 61.8% 0.00 in 923 W/m2
15:24 66.1 °F 52.9 °F 30.12 in WSW 5.7 mph 10 mph 62.4% 0.00 in 338 W/m2
15:29 65.7 °F 52.8 °F 30.12 in WSW 3.2 mph 7 mph 63.2% 0.00 in 939 W/m2
15:34 65.8 °F 53.1 °F 30.11 in West 4 mph 9 mph 63.5% 0.00 in 322 W/m2
15:39 65.9 °F 53.5 °F 30.11 in WNW 4 mph 9 mph 64.4% 0.00 in 958 W/m2
15:44 65.9 °F 53.9 °F 30.11 in WNW 3.2 mph 8 mph 65% 0.00 in 649 W/m2
15:49 66 °F 53.7 °F 30.11 in West 4.1 mph 9 mph 64.4% 0.00 in 390 W/m2
15:54 65.7 °F 53.8 °F 30.11 in West 4.3 mph 8 mph 65.4% 0.00 in 309 W/m2
15:59 65.6 °F 53.9 °F 30.11 in West 3.4 mph 7 mph 66% 0.00 in 343 W/m2
16:04 66.2 °F 53.9 °F 30.11 in WSW 4.1 mph 7 mph 64.6% 0.00 in 355 W/m2
16:09 65.6 °F 52.9 °F 30.11 in West 4.5 mph 9 mph 63.6% 0.00 in 237 W/m2
16:14 65.2 °F 53 °F 30.11 in West 4.5 mph 9 mph 64.6% 0.00 in 487 W/m2
16:19 65.8 °F 53.4 °F 30.11 in WSW 3.6 mph 7 mph 64.2% 0.00 in 819 W/m2
16:24 66.2 °F 53.5 °F 30.11 in West 5.4 mph 10 mph 63.8% 0.00 in 269 W/m2
16:34 64.9 °F 53.1 °F 30.11 in WNW 4.4 mph 9 mph 65.6% 0.00 in 290 W/m2
16:39 64.9 °F 53.2 °F 30.11 in WNW 4.7 mph 9 mph 66% 0.00 in 234 W/m2
16:44 64.8 °F 53.6 °F 30.11 in WNW 6.2 mph 8 mph 67% 0.00 in 684 W/m2
16:49 65.1 °F 53.9 °F 30.11 in West 4.8 mph 9 mph 67% 0.00 in 663 W/m2
16:54 65.5 °F 53.9 °F 30.11 in WSW 5.2 mph 10 mph 66.3% 0.00 in 336 W/m2
16:59 65.3 °F 53.7 °F 30.11 in West 3.6 mph 10 mph 66.2% 0.00 in 253 W/m2
17:04 65.7 °F 54.4 °F 30.11 in WNW 6.1 mph 10 mph 67% 0.00 in 686 W/m2
17:09 66.1 °F 54.8 °F 30.11 in WNW 4.8 mph 8 mph 67% 0.00 in 686 W/m2
17:14 66.4 °F 55 °F 30.11 in WSW 4.4 mph 7 mph 67% 0.00 in 636 W/m2
17:19 67 °F 55.3 °F 30.11 in West 4.6 mph 7 mph 66.2% 0.00 in 615 W/m2
17:24 67 °F 54.9 °F 30.11 in West 4 mph 8 mph 65.2% 0.00 in 547 W/m2
17:29 66.2 °F 54.8 °F 30.12 in West 4.1 mph 7 mph 66.8% 0.00 in 135 W/m2
17:34 65.5 °F 54.9 °F 30.12 in WSW 4.1 mph 7 mph 68.6% 0.00 in 294 W/m2
17:39 65.4 °F 54.9 °F 30.12 in West 4 mph 9 mph 69% 0.00 in 239 W/m2
17:44 65.2 °F 55.1 °F 30.12 in WNW 5.5 mph 9 mph 70% 0.00 in 218 W/m2
17:49 64.7 °F 54.7 °F 30.12 in WNW 5.6 mph 11 mph 70.2% 0.00 in 190 W/m2
17:54 64.8 °F 55.2 °F 30.11 in WNW 4.8 mph 11 mph 71% 0.00 in 527 W/m2
17:59 65.1 °F 54.9 °F 30.11 in NW 7.5 mph 12 mph 69.6% 0.00 in 519 W/m2
18:04 65.1 °F 55 °F 30.11 in WNW 7 mph 12 mph 70% 0.00 in 462 W/m2
18:09 65.5 °F 55.4 °F 30.11 in WNW 4.9 mph 9 mph 70.2% 0.00 in 436 W/m2
18:14 65.1 °F 55.1 °F 30.12 in WNW 5.6 mph 11 mph 70.2% 0.00 in 257 W/m2
18:19 65 °F 55.2 °F 30.12 in WNW 6.6 mph 11 mph 70.6% 0.00 in 533 W/m2
18:24 65 °F 54.9 °F 30.12 in WNW 5.1 mph 13 mph 70% 0.00 in 506 W/m2
18:29 64.8 °F 54.5 °F 30.12 in WNW 6 mph 13 mph 69.6% 0.00 in 415 W/m2
18:34 64.7 °F 54.6 °F 30.12 in WNW 4.8 mph 9 mph 70% 0.00 in 387 W/m2
18:39 64.8 °F 54.7 °F 30.12 in West 4.9 mph 11 mph 70% 0.00 in 355 W/m2
18:44 64.3 °F 54.4 °F 30.12 in WNW 8 mph 11 mph 70.2% 0.00 in 301 W/m2
18:49 63.7 °F 54.1 °F 30.12 in WNW 5.3 mph 10 mph 70.8% 0.00 in 244 W/m2
18:54 63.3 °F 53.5 °F 30.12 in NW 6.8 mph 13 mph 70.4% 0.00 in 267 W/m2
18:59 62.7 °F 52.9 °F 30.12 in NW 8.2 mph 14 mph 70.2% 0.00 in 234 W/m2
19:04 62.1 °F 52.8 °F 30.12 in West 6 mph 10 mph 71.6% 0.00 in 63 W/m2
19:09 61.5 °F 52.4 °F 30.12 in West 6 mph 11 mph 72% 0.00 in 91 W/m2
19:14 61.1 °F 52.5 °F 30.12 in WNW 7.1 mph 12 mph 73% 0.00 in 70 W/m2
19:19 60.6 °F 52 °F 30.12 in WNW 5.7 mph 10 mph 73% 0.00 in 69 W/m2
19:24 60.5 °F 51.9 °F 30.13 in West 5 mph 10 mph 73% 0.00 in 90 W/m2
19:29 60.4 °F 51.8 °F 30.13 in West 3.2 mph 8 mph 73% 0.00 in 95 W/m2
19:34 60.3 °F 51.2 °F 30.13 in WNW 5 mph 10 mph 71.6% 0.00 in 88 W/m2
19:39 60.1 °F 50.7 °F 30.13 in WNW 3.2 mph 6 mph 71% 0.00 in 56 W/m2
19:44 59.9 °F 50.5 °F 30.13 in West 3.6 mph 9 mph 71% 0.00 in 58 W/m2
19:49 59.7 °F 50.7 °F 30.13 in West 4 mph 7 mph 72% 0.00 in 56 W/m2
19:54 59.5 °F 50.5 °F 30.13 in West 2.4 mph 4 mph 72% 0.00 in 46 W/m2
19:59 59.5 °F 50.9 °F 30.13 in West 2 mph 4 mph 73% 0.00 in 39 W/m2
20:04 59.4 °F 50.5 °F 30.13 in West 2.8 mph 5 mph 72.2% 0.00 in 37 W/m2
20:09 59.2 °F 50.2 °F 30.13 in West 2.9 mph 5 mph 71.8% 0.00 in 40 W/m2
20:14 58.9 °F 49.4 °F 30.14 in WNW 3.6 mph 6 mph 70.6% 0.00 in 39 W/m2
20:19 58.8 °F 48.5 °F 30.14 in West 3.8 mph 5 mph 68.6% 0.00 in 28 W/m2
20:24 58.6 °F 48.3 °F 30.14 in West 2.9 mph 5 mph 68.2% 0.00 in 25 W/m2
20:29 58.5 °F 48.1 °F 30.14 in West 2.9 mph 6 mph 68% 0.00 in 25 W/m2
20:34 58.5 °F 48 °F 30.15 in West 1.5 mph 5 mph 68% 0.00 in 19 W/m2
20:39 58.3 °F 48 °F 30.15 in West 2 mph 3 mph 68.4% 0.00 in 16 W/m2
20:44 58.1 °F 47.9 °F 30.15 in West 2.1 mph 4 mph 68.6% 0.00 in 9 W/m2
20:49 57.9 °F 47.7 °F 30.15 in West 1.9 mph 4 mph 68.6% 0.00 in 5 W/m2
20:54 57.8 °F 47.7 °F 30.15 in WNW 3.6 mph 6 mph 69% 0.00 in 0 W/m2
20:59 57.6 °F 47.7 °F 30.16 in WNW 2.8 mph 5 mph 69.6% 0.00 in 0 W/m2
21:04 57.5 °F 47.8 °F 30.16 in WNW 3.3 mph 7 mph 70% 0.00 in 0 W/m2
21:09 57.4 °F 47.9 °F 30.16 in WNW 1.9 mph 5 mph 70.8% 0.00 in 0 W/m2
21:14 57.2 °F 47.9 °F 30.16 in WNW 2.4 mph 5 mph 71.2% 0.00 in 0 W/m2
21:19 57 °F 48 °F 30.16 in WNW 1 mph 4 mph 72% 0.00 in 0 W/m2
21:24 56.9 °F 48.1 °F 30.16 in WNW 0.9 mph 3 mph 72.6% 0.00 in 0 W/m2
21:29 56.8 °F 48.2 °F 30.15 in WNW 2.2 mph 4 mph 73% 0.00 in 0 W/m2
21:34 56.7 °F 48.2 °F 30.15 in WNW 0.9 mph 4 mph 73.6% 0.00 in 0 W/m2
21:39 56.7 °F 48.4 °F 30.15 in WNW 0.5 mph 2 mph 74% 0.00 in 0 W/m2
21:44 56.5 °F 48.4 °F 30.14 in Calm   2 mph 74% 0.00 in 0 W/m2
21:49 56.5 °F 48.4 °F 30.14 in WNW 0.5 mph 2 mph 74% 0.00 in 0 W/m2
21:54 56.4 °F 48.5 °F 30.14 in WNW 1 mph 3 mph 74.6% 0.00 in 0 W/m2
21:59 56.1 °F 48.5 °F 30.14 in WNW 2 mph 3 mph 75.2% 0.00 in 0 W/m2
22:04 55.9 °F 48.6 °F 30.14 in WNW 1.7 mph 3 mph 76% 0.00 in 0 W/m2
22:09 55.8 °F 48.4 °F 30.14 in WNW 0.8 mph 4 mph 76% 0.00 in 0 W/m2
22:14 55.8 °F 48.4 °F 30.14 in WNW 1.3 mph 4 mph 76% 0.00 in 0 W/m2
22:19 55.8 °F 48.6 °F 30.14 in WNW 0.8 mph 2 mph 76.8% 0.00 in 0 W/m2
22:24 55.7 °F 48.6 °F 30.14 in WNW 0.9 mph 2 mph 77% 0.00 in 0 W/m2
22:29 55.6 °F 48.6 °F 30.14 in WNW 1 mph 3 mph 77% 0.00 in 0 W/m2
22:34 55.6 °F 48.6 °F 30.14 in Calm   2 mph 77% 0.00 in 0 W/m2
22:39 55.6 °F 48.6 °F 30.14 in WNW 0.8 mph 2 mph 77% 0.00 in 0 W/m2
22:44 55.6 °F 48.6 °F 30.15 in WNW 1.3 mph 2 mph 77% 0.00 in 0 W/m2
22:49 55.6 °F 48.6 °F 30.15 in WNW 1.2 mph 3 mph 77% 0.00 in 0 W/m2
22:54 55.6 °F 48.6 °F 30.15 in WNW 0.5 mph 3 mph 77% 0.00 in 0 W/m2
22:59 55.4 °F 48.4 °F 30.14 in WNW 0.9 mph 3 mph 77% 0.00 in 0 W/m2
23:04 55.2 °F 48.2 °F 30.15 in WNW 0.5 mph 3 mph 77% 0.00 in 0 W/m2
23:09 55.2 °F 48.2 °F 30.14 in WNW 0.2 mph 1 mph 77% 0.00 in 0 W/m2
23:14 55.2 °F 48.2 °F 30.15 in Calm   1 mph 77% 0.00 in 0 W/m2
23:19 55.4 °F 48.5 °F 30.15 in WNW 0.2 mph 2 mph 77.2% 0.00 in 0 W/m2
23:24 55.4 °F 48.7 °F 30.15 in WNW 0.4 mph 2 mph 78% 0.00 in 0 W/m2
23:34 55.1 °F 48.5 °F 30.14 in WNW 0.4 mph 2 mph 78% 0.00 in 0 W/m2
23:39 54.9 °F 48.2 °F 30.14 in WNW 2.4 mph 4 mph 78% 0.00 in 0 W/m2
23:43 54.8 °F 48.1 °F 30.14 in WNW 0.5 mph 2 mph 78% 0.00 in 0 W/m2
23:49 54.7 °F 48 °F 30.14 in WNW 0.2 mph 2 mph 78% 0.00 in 0 W/m2
23:54 54.7 °F 48 °F 30.14 in WNW 1.3 mph 2 mph 78% 0.00 in 0 W/m2
23:59 54.5 °F 47.8 °F 30.14 in WNW 1.4 mph 2 mph 78% 0.00 in 0 W/m2
Bath Spa Weather
Compliments of Weather Underground - 2 mb